createdAt,value
2018-12-04T00:01:37.979Z,58.09
2018-12-04T00:04:42.042Z,58.03
2018-12-04T00:07:46.115Z,57.99
2018-12-04T00:10:50.174Z,58.56
2018-12-04T00:13:54.244Z,58.46
2018-12-04T00:16:58.301Z,58.94
2018-12-04T00:20:02.397Z,59.06
2018-12-04T00:23:06.473Z,59.28
2018-12-04T00:26:10.528Z,59.64
2018-12-04T00:29:14.614Z,59.16
2018-12-04T00:32:18.683Z,59.36
2018-12-04T00:36:06.503Z,58.55
2018-12-04T00:39:10.671Z,58.63
2018-12-04T00:42:14.738Z,58.33
2018-12-04T00:45:18.903Z,58.99
2018-12-04T00:48:22.996Z,58.87
2018-12-04T00:51:27.084Z,58.72
2018-12-04T00:54:31.246Z,58.44
2018-12-04T00:57:35.373Z,59.54
2018-12-04T01:00:39.502Z,59.59
2018-12-04T01:03:43.589Z,58.70
2018-12-04T01:06:47.710Z,58.47
2018-12-04T01:09:51.834Z,57.91
2018-12-04T01:12:55.926Z,57.62
2018-12-04T01:16:00.034Z,57.87
2018-12-04T01:19:04.167Z,57.38
2018-12-04T01:22:08.283Z,57.90
2018-12-04T01:25:12.359Z,57.66
2018-12-04T01:28:16.524Z,57.34
2018-12-04T01:31:20.640Z,57.25
2018-12-04T01:34:24.862Z,57.34
2018-12-04T01:37:28.945Z,57.76
2018-12-04T01:40:33.095Z,57.49
2018-12-04T01:43:37.246Z,57.19
2018-12-04T01:46:41.436Z,57.49
2018-12-04T01:49:45.522Z,57.44
2018-12-04T01:52:49.621Z,57.27
2018-12-04T01:55:53.777Z,57.36
2018-12-04T01:58:57.866Z,58.24
2018-12-04T02:02:01.998Z,57.71
2018-12-04T02:05:06.168Z,57.81
2018-12-04T02:08:10.232Z,57.99
2018-12-04T02:11:14.313Z,58.25
2018-12-04T02:14:18.465Z,58.44
2018-12-04T02:17:22.698Z,58.04
2018-12-04T02:20:26.902Z,57.32
2018-12-04T02:23:31.019Z,57.27
2018-12-04T02:26:35.115Z,57.46
2018-12-04T02:29:39.347Z,57.39
2018-12-04T02:32:43.476Z,57.36
2018-12-04T02:35:47.525Z,57.34
2018-12-04T02:38:51.606Z,57.56
2018-12-04T02:41:55.759Z,57.29
2018-12-04T02:44:59.826Z,57.24
2018-12-04T02:48:04.054Z,56.91
2018-12-04T02:51:08.135Z,57.15
2018-12-04T02:54:12.286Z,56.94
2018-12-04T02:57:16.373Z,56.87
2018-12-04T03:00:20.519Z,56.17
2018-12-04T03:03:24.615Z,56.41
2018-12-04T03:06:28.691Z,56.09
2018-12-04T03:09:32.833Z,56.21
2018-12-04T03:12:36.930Z,55.84
2018-12-04T03:15:41.050Z,55.39
2018-12-04T03:18:45.202Z,55.31
2018-12-04T03:21:49.314Z,55.49
2018-12-04T03:24:53.642Z,55.35
2018-12-04T03:27:57.787Z,55.49
2018-12-04T03:31:03.923Z,55.32
2018-12-04T03:34:08.005Z,55.77
2018-12-04T03:37:12.091Z,55.31
2018-12-04T03:40:16.180Z,56.16
2018-12-04T03:43:20.556Z,55.56
2018-12-04T03:46:24.644Z,55.46
2018-12-04T03:49:28.829Z,55.96
2018-12-04T03:52:33.036Z,54.94
2018-12-04T03:55:37.117Z,55.47
2018-12-04T03:58:41.249Z,55.36
2018-12-04T04:01:45.389Z,55.39
2018-12-04T04:04:49.512Z,55.91
2018-12-04T04:07:53.538Z,55.67
2018-12-04T04:10:57.681Z,55.68
2018-12-04T04:14:01.818Z,56.04
2018-12-04T04:17:05.910Z,55.85
2018-12-04T04:20:10.041Z,56.33
2018-12-04T04:23:14.130Z,56.31
2018-12-04T04:26:18.287Z,57.06
2018-12-04T04:29:22.435Z,56.82
2018-12-04T04:32:26.522Z,56.58
2018-12-04T04:35:37.229Z,57.24
2018-12-04T04:38:41.321Z,58.30
2018-12-04T04:41:45.452Z,57.95
2018-12-04T04:44:49.574Z,58.80
2018-12-04T04:47:53.696Z,58.10
2018-12-04T04:50:57.814Z,58.49
2018-12-04T04:54:01.918Z,58.32
2018-12-04T04:57:06.067Z,58.57
2018-12-04T05:00:10.250Z,58.25
2018-12-04T05:03:14.377Z,58.36
2018-12-04T05:06:18.480Z,58.17
2018-12-04T05:09:22.623Z,58.39
2018-12-04T05:12:26.707Z,59.08
2018-12-04T05:15:30.783Z,58.49
2018-12-04T05:18:34.955Z,58.85
2018-12-04T05:21:39.029Z,58.88
2018-12-04T05:24:43.096Z,59.06
2018-12-04T05:27:47.201Z,58.50
2018-12-04T05:30:51.286Z,58.46
2018-12-04T05:33:55.369Z,58.56
2018-12-04T05:36:59.440Z,58.53
2018-12-04T05:40:05.399Z,57.55
2018-12-04T05:43:09.530Z,58.08
2018-12-04T05:46:13.665Z,57.58
2018-12-04T05:49:17.851Z,56.86
2018-12-04T05:52:22.684Z,56.68
2018-12-04T05:55:26.726Z,55.96
2018-12-04T05:58:30.814Z,56.88
2018-12-04T06:01:34.901Z,56.49
2018-12-04T06:04:39.691Z,56.23
2018-12-04T06:07:43.769Z,56.06
2018-12-04T06:10:48.792Z,55.33
2018-12-04T06:13:52.894Z,55.82
2018-12-04T06:16:57.059Z,55.53
2018-12-04T06:20:01.358Z,54.94
2018-12-04T06:23:05.509Z,54.90
2018-12-04T06:26:09.605Z,54.60
2018-12-04T06:29:13.673Z,55.25
2018-12-04T06:32:17.827Z,54.47
2018-12-04T06:35:23.111Z,54.80
2018-12-04T06:38:27.301Z,54.62
2018-12-04T06:41:31.379Z,54.26
2018-12-04T06:44:35.514Z,54.86
2018-12-04T06:47:39.737Z,53.97
2018-12-04T06:50:43.818Z,54.56
2018-12-04T06:53:47.964Z,54.47
2018-12-04T06:56:52.085Z,54.27
2018-12-04T06:59:56.190Z,54.81
2018-12-04T07:03:00.285Z,54.92
2018-12-04T07:06:04.530Z,54.42
2018-12-04T07:09:08.750Z,54.67
2018-12-04T07:12:12.866Z,54.10
2018-12-04T07:15:17.089Z,54.74
2018-12-04T07:18:21.314Z,54.69
2018-12-04T07:21:25.384Z,53.99
2018-12-04T07:24:29.538Z,54.16
2018-12-04T07:27:33.602Z,54.64
2018-12-04T07:30:37.774Z,54.17
2018-12-04T07:33:41.888Z,53.58
2018-12-04T07:36:46.024Z,54.11
2018-12-04T07:39:50.139Z,53.71
2018-12-04T07:42:54.289Z,54.02
2018-12-04T07:45:58.454Z,53.77
2018-12-04T07:49:02.537Z,54.29
2018-12-04T07:52:06.657Z,53.27
2018-12-04T07:55:10.801Z,53.45
2018-12-04T07:58:15.772Z,53.71
2018-12-04T08:01:20.152Z,53.63
2018-12-04T08:04:24.258Z,53.53
2018-12-04T08:07:28.390Z,53.19
2018-12-04T08:10:32.535Z,52.92
2018-12-04T08:13:36.606Z,53.67
2018-12-04T08:16:40.742Z,52.89
2018-12-04T08:19:44.850Z,52.57
2018-12-04T08:22:49.014Z,53.35
2018-12-04T08:25:53.190Z,52.58
2018-12-04T08:28:57.276Z,53.14
2018-12-04T08:32:01.366Z,52.46
2018-12-04T08:35:06.877Z,52.94
2018-12-04T08:38:11.088Z,52.40
2018-12-04T08:41:15.171Z,52.85
2018-12-04T08:44:19.260Z,52.32
2018-12-04T08:47:23.345Z,51.93
2018-12-04T08:50:27.447Z,52.88
2018-12-04T08:53:31.557Z,51.23
2018-12-04T08:56:35.638Z,51.64
2018-12-04T08:59:39.727Z,52.06
2018-12-04T09:02:43.917Z,52.05
2018-12-04T09:05:47.970Z,51.96
2018-12-04T09:08:52.145Z,51.98
2018-12-04T09:15:09.873Z,51.41
2018-12-04T09:18:15.075Z,50.73
2018-12-04T09:21:19.240Z,50.96
2018-12-04T09:24:23.379Z,51.13
2018-12-04T09:27:27.560Z,51.41
2018-12-04T09:30:31.809Z,51.32
2018-12-04T09:33:36.922Z,51.14
2018-12-04T09:36:41.055Z,50.86
2018-12-04T09:39:45.149Z,50.51
2018-12-04T09:42:49.205Z,50.68
2018-12-04T09:45:53.308Z,50.00
2018-12-04T09:48:57.418Z,49.33
2018-12-04T09:52:01.550Z,49.58
2018-12-04T09:55:06.822Z,49.33
2018-12-04T09:58:10.885Z,49.50
2018-12-04T10:01:15.029Z,48.86
2018-12-04T10:04:19.116Z,48.78
2018-12-04T10:07:23.186Z,50.74
2018-12-04T10:10:27.268Z,50.19
2018-12-04T10:13:31.358Z,50.69
2018-12-04T10:16:35.442Z,49.46
2018-12-04T10:19:39.504Z,49.23
2018-12-04T10:22:43.593Z,49.65
2018-12-04T10:25:50.336Z,50.42
2018-12-04T10:28:54.426Z,50.89
2018-12-04T10:31:58.564Z,50.37
2018-12-04T10:35:02.849Z,50.46
2018-12-04T10:38:06.934Z,51.54
2018-12-04T10:41:11.070Z,49.42
2018-12-04T10:44:15.313Z,49.77
2018-12-04T10:47:19.404Z,50.37
2018-12-04T10:50:23.487Z,49.27
2018-12-04T10:53:27.606Z,49.96
2018-12-04T10:56:31.685Z,51.53
2018-12-04T10:59:35.765Z,52.05
2018-12-04T11:02:44.433Z,52.53
2018-12-04T11:05:48.621Z,52.84
2018-12-04T11:08:52.705Z,53.50
2018-12-04T11:11:56.767Z,52.05
2018-12-04T11:15:00.959Z,50.55
2018-12-04T11:18:05.203Z,51.82
2018-12-04T11:21:09.286Z,51.58
2018-12-04T11:24:13.352Z,50.79
2018-12-04T11:27:17.425Z,50.70
2018-12-04T11:30:21.650Z,50.94
2018-12-04T11:33:25.743Z,50.67
2018-12-04T11:36:29.989Z,50.39
2018-12-04T11:39:34.058Z,51.86
2018-12-04T11:42:38.207Z,51.04
2018-12-04T11:45:42.341Z,50.89
2018-12-04T11:48:46.418Z,50.87
2018-12-04T11:51:50.493Z,50.12
2018-12-04T11:54:54.567Z,49.66
2018-12-04T11:57:58.654Z,50.80
2018-12-04T12:01:03.190Z,48.81
2018-12-04T12:04:08.257Z,50.23
2018-12-04T12:07:13.417Z,48.92
2018-12-04T12:10:17.485Z,49.87
2018-12-04T12:13:21.569Z,50.56
2018-12-04T12:16:25.629Z,48.56
2018-12-04T12:19:29.717Z,48.46
2018-12-04T12:22:33.792Z,49.69
2018-12-04T12:25:37.867Z,49.66
2018-12-04T12:28:41.939Z,49.76
2018-12-04T12:31:46.013Z,50.95
2018-12-04T12:34:50.138Z,50.83
2018-12-04T12:37:54.233Z,51.24
2018-12-04T12:40:58.301Z,51.03
2018-12-04T12:44:02.458Z,51.56
2018-12-04T12:47:06.594Z,51.44
2018-12-04T12:50:10.697Z,52.09
2018-12-04T12:53:14.770Z,52.10
2018-12-04T12:56:18.939Z,52.63
2018-12-04T12:59:23.018Z,52.77
2018-12-04T13:02:27.089Z,53.73
2018-12-04T13:05:31.309Z,52.73
2018-12-04T13:08:35.413Z,52.87
2018-12-04T13:11:39.638Z,53.67
2018-12-04T13:14:43.742Z,53.89
2018-12-04T13:17:47.805Z,53.39
2018-12-04T13:20:51.885Z,53.74
2018-12-04T13:23:55.949Z,53.07
2018-12-04T13:27:00.049Z,53.40
2018-12-04T13:30:06.272Z,54.30
2018-12-04T13:33:10.349Z,52.62
2018-12-04T13:36:14.426Z,52.68
2018-12-04T13:39:18.570Z,53.24
2018-12-04T13:42:22.711Z,53.20
2018-12-04T13:45:26.851Z,53.35
2018-12-04T13:48:30.929Z,54.43
2018-12-04T13:51:35.160Z,53.72
2018-12-04T13:54:39.503Z,52.28
2018-12-04T13:57:43.639Z,54.72
2018-12-04T14:00:47.914Z,54.50
2018-12-04T14:03:52.038Z,54.58
2018-12-04T14:06:56.185Z,55.22
2018-12-04T14:10:00.253Z,53.47
2018-12-04T14:13:04.336Z,55.76
2018-12-04T14:16:08.530Z,54.21
2018-12-04T14:19:12.702Z,55.82
2018-12-04T14:22:16.798Z,55.26
2018-12-04T14:25:20.862Z,54.22
2018-12-04T14:28:25.087Z,53.35
2018-12-04T14:31:29.198Z,55.73
2018-12-04T14:34:33.335Z,54.41
2018-12-04T14:37:38.543Z,53.27
2018-12-04T14:40:42.717Z,54.30
2018-12-04T14:43:46.836Z,53.80
2018-12-04T14:46:50.946Z,52.84
2018-12-04T14:49:55.120Z,53.14
2018-12-04T14:52:59.223Z,52.89
2018-12-04T14:56:03.432Z,52.86
2018-12-04T14:59:07.692Z,53.14
2018-12-04T15:02:11.830Z,52.99
2018-12-04T15:05:16.137Z,53.55
2018-12-04T15:08:20.250Z,52.85
2018-12-04T15:11:24.335Z,53.36
2018-12-04T15:14:28.391Z,52.75
2018-12-04T15:17:32.569Z,53.05
2018-12-04T15:20:38.729Z,52.02
2018-12-04T15:23:42.975Z,52.14
2018-12-04T15:26:47.043Z,52.25
2018-12-04T15:29:51.110Z,52.74
2018-12-04T15:32:55.302Z,52.41
2018-12-04T15:35:59.418Z,52.37
2018-12-04T15:39:05.862Z,52.63
2018-12-04T15:42:11.176Z,52.94
2018-12-04T15:45:15.406Z,54.57
2018-12-04T15:48:19.578Z,55.66
2018-12-04T15:51:23.699Z,55.75
2018-12-04T15:54:27.863Z,55.36
2018-12-04T15:57:31.978Z,54.37
2018-12-04T16:00:36.118Z,56.40
2018-12-04T16:03:40.192Z,54.12
2018-12-04T16:06:44.267Z,52.60
2018-12-04T16:09:48.348Z,52.43
2018-12-04T16:12:52.424Z,53.02
2018-12-04T16:15:56.525Z,53.25
2018-12-04T16:19:00.734Z,54.41
2018-12-04T16:22:04.886Z,55.54
2018-12-04T16:25:09.109Z,55.14
2018-12-04T16:28:13.259Z,53.74
2018-12-04T16:31:17.385Z,56.55
2018-12-04T16:34:21.461Z,55.79
2018-12-04T16:37:25.546Z,54.22
2018-12-04T16:40:29.615Z,53.84
2018-12-04T16:43:33.695Z,53.66
2018-12-04T16:46:37.789Z,55.77
2018-12-04T16:49:41.890Z,54.62
2018-12-04T16:52:45.950Z,54.03
2018-12-04T16:55:50.022Z,54.35
2018-12-04T16:58:54.114Z,54.49
2018-12-04T17:01:58.206Z,53.77
2018-12-04T17:05:02.378Z,54.25
2018-12-04T17:08:06.447Z,53.16
2018-12-04T17:11:10.526Z,53.71
2018-12-04T17:14:14.609Z,53.43
2018-12-04T17:17:18.760Z,55.92
2018-12-04T17:20:22.839Z,55.60
2018-12-04T17:23:26.923Z,54.96
2018-12-04T17:26:31.001Z,55.49
2018-12-04T17:29:48.718Z,55.34
2018-12-04T17:36:12.198Z,56.33
2018-12-04T17:42:50.734Z,55.39
2018-12-04T17:45:54.798Z,56.21
2018-12-04T17:48:58.908Z,54.64
2018-12-04T17:52:03.028Z,56.85
2018-12-04T17:55:08.280Z,54.37
2018-12-04T17:58:13.329Z,57.28
2018-12-04T18:01:18.474Z,56.68
2018-12-04T18:04:22.567Z,56.00
2018-12-04T18:07:28.615Z,55.11
2018-12-04T18:10:32.714Z,56.75
2018-12-04T18:13:36.815Z,54.53
2018-12-04T18:16:42.883Z,53.39
2018-12-04T18:19:46.968Z,55.88
2018-12-04T18:22:51.080Z,55.64
2018-12-04T18:25:55.149Z,52.23
2018-12-04T18:29:00.218Z,53.64
2018-12-04T18:32:04.454Z,55.09
2018-12-04T18:35:08.614Z,57.24
2018-12-04T18:38:13.855Z,57.11
2018-12-04T18:41:18.044Z,55.29
2018-12-04T18:44:22.115Z,55.68
2018-12-04T18:47:47.681Z,57.73
2018-12-04T18:50:51.773Z,56.22
2018-12-04T18:53:55.874Z,55.64
2018-12-04T18:57:00.015Z,56.98
2018-12-04T19:00:08.205Z,55.86
2018-12-04T19:03:12.286Z,56.00
2018-12-04T19:06:16.511Z,53.33
2018-12-04T19:09:47.311Z,53.32
2018-12-04T19:12:51.389Z,54.73
2018-12-04T19:15:55.560Z,56.34
2018-12-04T19:18:59.643Z,53.48
2018-12-04T19:22:03.900Z,54.95
2018-12-04T19:25:08.272Z,55.49
2018-12-04T19:28:12.414Z,57.89
2018-12-04T19:34:50.811Z,54.47
2018-12-04T19:37:55.765Z,54.91
2018-12-04T19:41:00.014Z,55.81
2018-12-04T19:44:04.262Z,54.99
2018-12-04T19:47:08.414Z,55.60
2018-12-04T19:50:12.810Z,55.88
2018-12-04T19:53:16.917Z,56.89
2018-12-04T19:56:20.995Z,57.10
2018-12-04T19:59:47.554Z,54.40
2018-12-04T20:02:51.655Z,56.80
2018-12-04T20:05:55.776Z,56.47
2018-12-04T20:08:59.929Z,54.71
2018-12-04T20:12:04.281Z,56.91
2018-12-04T20:15:08.593Z,53.57
2018-12-04T20:18:12.692Z,53.02
2018-12-04T20:21:16.840Z,54.84
2018-12-04T20:24:21.002Z,57.88
2018-12-04T20:27:25.076Z,55.53
2018-12-04T20:30:29.270Z,57.05
2018-12-04T20:33:33.393Z,56.71
2018-12-04T20:36:37.460Z,54.36
2018-12-04T20:39:41.538Z,55.69
2018-12-04T20:42:45.605Z,58.21
2018-12-04T20:45:49.730Z,57.11
2018-12-04T20:48:53.935Z,59.03
2018-12-04T20:51:58.022Z,58.69
2018-12-04T20:55:08.514Z,58.94
2018-12-04T20:58:08.219Z,56.75
2018-12-04T21:01:12.328Z,58.14
2018-12-04T21:04:16.404Z,54.50
2018-12-04T21:07:20.488Z,54.40
2018-12-04T21:10:24.565Z,55.33
2018-12-04T21:13:28.663Z,55.95
2018-12-04T21:16:32.755Z,55.90
2018-12-04T21:19:36.919Z,55.49
2018-12-04T21:22:41.003Z,59.42
2018-12-04T21:25:46.037Z,58.46
2018-12-04T21:28:55.558Z,55.13
2018-12-04T21:32:05.167Z,56.16
2018-12-04T21:35:14.562Z,55.13
2018-12-04T21:38:24.038Z,57.32
2018-12-04T21:41:33.566Z,56.49
2018-12-04T21:44:43.157Z,57.64
2018-12-04T21:47:52.662Z,56.10
2018-12-04T21:50:56.721Z,55.06
2018-12-04T21:54:00.810Z,55.88
2018-12-04T21:57:04.933Z,58.36
2018-12-04T22:00:09.085Z,57.62
2018-12-04T22:03:13.189Z,59.42
2018-12-04T22:06:17.353Z,56.21
2018-12-04T22:09:21.428Z,55.11
2018-12-04T22:12:25.522Z,56.26
2018-12-04T22:15:29.618Z,56.44
2018-12-04T22:18:33.705Z,56.90
2018-12-04T22:21:48.574Z,59.12
2018-12-04T22:24:52.726Z,58.61
2018-12-04T22:31:13.815Z,55.52
2018-12-04T22:34:17.887Z,58.23
2018-12-04T22:37:22.057Z,56.18
2018-12-04T22:40:27.303Z,56.13
2018-12-04T22:43:31.374Z,58.29
2018-12-04T22:46:35.556Z,56.88
2018-12-04T22:49:48.284Z,56.71
2018-12-04T22:52:52.374Z,57.96
2018-12-04T22:55:56.469Z,55.22
2018-12-04T22:59:00.546Z,55.83
2018-12-04T23:02:04.858Z,57.37
2018-12-04T23:05:09.017Z,58.51
2018-12-04T23:08:13.102Z,58.03
2018-12-04T23:11:17.259Z,56.35
2018-12-04T23:14:21.338Z,55.83
2018-12-04T23:17:25.419Z,59.91
2018-12-04T23:20:29.501Z,56.72
2018-12-04T23:23:33.578Z,56.79
2018-12-04T23:26:37.665Z,56.85
2018-12-04T23:29:41.762Z,55.95
2018-12-04T23:32:45.858Z,56.10
2018-12-04T23:35:49.942Z,59.06
2018-12-04T23:38:54.028Z,59.77
2018-12-04T23:41:58.167Z,57.75
2018-12-04T23:45:02.261Z,59.49
2018-12-04T23:48:07.499Z,56.32
2018-12-04T23:51:11.578Z,55.72
2018-12-04T23:54:15.683Z,55.96
2018-12-04T23:57:19.754Z,58.55
